Time;durP1;ratioP1;P1;durP2;ratioP2;P2;SDS_P1;SDS_P2;PMS_P1;PMS_P2;Temp;Humidity;BMP_temperature;BMP_pressure;BME280_temperature;BME280_humidity;BME280_pressure;Samples;Min_cycle;Max_cycle;Signal;HPM_P1;HPM_P2
2022/02/08 00:02:01;;;;;;;;;;;;;;;18.60;60.63;99978.50;5101183;28;1966;-37
2022/02/08 00:04:29;;;;;;;;;;;;;;;18.58;60.87;99978.66;5110700;28;1362;-36
2022/02/08 00:06:56;;;;;;;;;;;;;;;18.56;60.50;99983.31;5105430;28;1470;-36
2022/02/08 00:09:26;;;;;;;;;;;;;;;18.58;60.84;99981.34;5103473;28;1973;-36
2022/02/08 00:11:56;;;;;;;;;;;;;;;18.61;60.55;99986.38;5114546;28;1691;-36
2022/02/08 00:14:31;;;;;;;;;;;;;;;18.62;60.30;99981.84;5105360;28;1925;-36
2022/02/08 00:16:58;;;;;;;;;;;;;;;18.59;60.89;99987.53;5103917;28;1859;-36
2022/02/08 00:19:35;;;;;;;;;;;;;;;18.55;60.87;99986.97;5104677;28;1569;-36
2022/02/08 00:22:04;;;;;;;;;;;;;;;18.52;60.89;99987.28;5096084;28;1991;-36
2022/02/08 00:24:34;;;;;;;;;;;;;;;18.49;60.63;99990.28;5097155;28;1745;-37
2022/02/08 00:27:04;;;;;;;;;;;;;;;18.49;61.07;99996.47;5105662;28;983;-37
2022/02/08 00:29:34;;;;;;;;;;;;;;;18.50;60.70;99994.63;5105597;28;1914;-36
2022/02/08 00:32:02;;;;;;;;;;;;;;;18.55;60.87;100002.22;5100623;28;1648;-36
2022/02/08 00:34:31;;;;;;;;;;;;;;;18.52;60.30;100003.34;5106568;28;1419;-36
2022/02/08 00:37:00;;;;;;;;;;;;;;;18.57;60.58;100021.66;5099468;28;2025;-36
2022/02/08 00:39:30;;;;;;;;;;;;;;;18.56;60.60;100020.81;5104041;28;1645;-36
2022/02/08 00:42:13;;;;;;;;;;;;;;;18.56;60.53;100038.69;5114520;28;1049;-36
2022/02/08 00:44:50;;;;;;;;;;;;;;;18.60;60.49;100032.91;5108035;28;1868;-36
2022/02/08 00:47:25;;;;;;;;;;;;;;;18.62;59.84;100047.00;5110572;28;1441;-36
2022/02/08 00:50:04;;;;;;;;;;;;;;;18.58;60.57;100040.25;5102686;28;1927;-36
2022/02/08 00:52:34;;;;;;;;;;;;;;;18.66;59.62;100042.16;5103039;28;1768;-36
2022/02/08 00:55:09;;;;;;;;;;;;;;;18.83;59.98;100049.41;5111163;28;1952;-36
2022/02/08 00:57:39;;;;;;;;;;;;;;;18.88;59.92;100048.97;5109622;28;1539;-36
2022/02/08 01:00:09;;;;;;;;;;;;;;;18.87;59.95;100042.75;5112290;28;1676;-38
2022/02/08 01:02:37;;;;;;;;;;;;;;;18.91;59.63;100062.03;5106803;28;1429;-36
2022/02/08 01:05:07;;;;;;;;;;;;;;;18.88;58.92;100084.63;5107639;28;1981;-36
2022/02/08 01:07:40;;;;;;;;;;;;;;;18.89;60.13;100085.47;5104915;28;1839;-36
2022/02/08 01:10:09;;;;;;;;;;;;;;;18.85;59.27;100095.63;5108737;28;1961;-36
2022/02/08 01:12:36;;;;;;;;;;;;;;;18.82;59.93;100103.13;5095504;28;1625;-36
2022/02/08 01:15:24;;;;;;;;;;;;;;;18.78;59.97;100113.28;5110568;28;1485;-37
2022/02/08 01:18:00;;;;;;;;;;;;;;;18.71;59.66;100111.34;5108082;28;1348;-36
2022/02/08 01:20:39;;;;;;;;;;;;;;;18.71;60.53;100132.78;5099236;28;1127;-36
2022/02/08 01:23:23;;;;;;;;;;;;;;;18.81;59.63;100141.63;5110844;28;1659;-36
2022/02/08 01:25:53;;;;;;;;;;;;;;;18.81;60.10;100141.63;5104226;28;1471;-36
2022/02/08 01:28:30;;;;;;;;;;;;;;;18.81;60.36;100147.81;5097338;28;1976;-36
2022/02/08 01:31:02;;;;;;;;;;;;;;;18.81;59.75;100155.84;5097680;28;1639;-36
2022/02/08 01:36:39;;;;;;;;;;;;;;;18.71;60.45;100167.59;5085342;28;1566;-36
2022/02/08 01:39:17;;;;;;;;;;;;;;;18.71;60.04;100181.81;5099546;28;1577;-37
2022/02/08 01:42:02;;;;;;;;;;;;;;;18.71;59.95;100183.66;5100875;28;1113;-36
2022/02/08 01:44:34;;;;;;;;;;;;;;;18.66;60.34;100192.97;5104477;28;1764;-36
2022/02/08 01:47:19;;;;;;;;;;;;;;;18.69;60.87;100211.41;5107837;28;2011;-36
2022/02/08 01:50:10;;;;;;;;;;;;;;;18.63;60.52;100193.25;5100234;28;1988;-37
2022/02/08 01:52:38;;;;;;;;;;;;;;;18.57;61.08;100220.63;5110935;28;1935;-36
2022/02/08 01:55:09;;;;;;;;;;;;;;;18.54;60.95;100214.72;5103958;28;1563;-36
2022/02/08 01:57:45;;;;;;;;;;;;;;;18.55;60.90;100227.97;5098189;28;1831;-37
2022/02/08 02:00:15;;;;;;;;;;;;;;;18.59;61.26;100232.03;5111821;28;1338;-36
2022/02/08 02:02:52;;;;;;;;;;;;;;;18.55;61.02;100243.19;5110707;28;1855;-36
2022/02/08 02:05:23;;;;;;;;;;;;;;;18.50;60.75;100238.25;5112036;28;1636;-37
2022/02/08 02:07:52;;;;;;;;;;;;;;;18.53;60.66;100251.38;5112786;28;1800;-36
2022/02/08 02:10:19;;;;;;;;;;;;;;;18.50;61.56;100248.97;5113099;28;1909;-36
2022/02/08 02:12:57;;;;;;;;;;;;;;;18.52;60.77;100233.59;5113802;28;1553;-36
2022/02/08 02:15:27;;;;;;;;;;;;;;;18.56;61.24;100259.13;5099388;28;1840;-36
2022/02/08 02:17:57;;;;;;;;;;;;;;;18.55;60.64;100249.38;5106632;28;1605;-37
2022/02/08 02:20:29;;;;;;;;;;;;;;;18.59;60.98;100279.41;5105721;28;1404;-36
2022/02/08 02:22:58;;;;;;;;;;;;;;;18.58;61.13;100275.91;5102809;28;1993;-36
2022/02/08 02:25:31;;;;;;;;;;;;;;;18.61;60.47;100275.59;5108693;28;1530;-36
2022/02/08 02:28:01;;;;;;;;;;;;;;;18.60;60.61;100278.41;5100278;28;1744;-36
2022/02/08 02:30:29;;;;;;;;;;;;;;;18.57;61.01;100282.22;5113434;28;1906;-36
2022/02/08 02:32:58;;;;;;;;;;;;;;;18.58;60.76;100286.59;5095931;28;1930;-36
2022/02/08 02:35:27;;;;;;;;;;;;;;;18.48;60.81;100294.66;5102102;28;1582;-36
2022/02/08 02:37:57;;;;;;;;;;;;;;;18.45;61.18;100296.75;5102355;28;1264;-36
2022/02/08 02:40:25;;;;;;;;;;;;;;;18.42;61.09;100297.03;5107268;28;1338;-36
2022/02/08 02:42:58;;;;;;;;;;;;;;;18.47;60.96;100311.69;5099352;28;1768;-37
2022/02/08 02:45:28;;;;;;;;;;;;;;;18.53;60.87;100321.00;5097606;28;1757;-36
2022/02/08 02:48:05;;;;;;;;;;;;;;;18.53;60.53;100299.56;5102481;28;1453;-37
2022/02/08 02:50:32;;;;;;;;;;;;;;;18.53;60.80;100312.97;5110256;28;1902;-36
2022/02/08 02:55:40;;;;;;;;;;;;;;;18.53;61.04;100317.47;5104590;28;1865;-36
2022/02/08 02:58:14;;;;;;;;;;;;;;;18.52;61.26;100324.63;5099448;28;1608;-36
2022/02/08 15:07:04;;;;;;;;;;;;;;;19.03;57.82;101148.88;5025344;28;1827;-33
2022/02/08 15:09:34;;;;;;;;;;;;;;;19.08;58.16;101152.03;5024738;28;1906;-33
2022/02/08 15:12:09;;;;;;;;;;;;;;;19.03;58.47;101151.56;5020270;28;1064;-32
2022/02/08 15:14:44;;;;;;;;;;;;;;;19.03;58.05;101164.97;5027230;28;1823;-33
2022/02/08 15:17:10;;;;;;;;;;;;;;;19.04;58.11;101157.81;5027264;28;1605;-32
2022/02/08 15:19:40;;;;;;;;;;;;;;;19.03;57.69;101159.59;5025448;28;1966;-33
2022/02/08 15:22:08;;;;;;;;;;;;;;;19.01;58.20;101166.06;5020384;28;1484;-33
2022/02/08 15:24:35;;;;;;;;;;;;;;;19.04;57.61;101177.41;5023255;28;1609;-33
2022/02/08 15:27:02;;;;;;;;;;;;;;;19.06;57.64;101183.50;5024411;28;1053;-33
2022/02/08 15:29:31;;;;;;;;;;;;;;;19.02;58.25;101178.47;5018136;28;1906;-33
2022/02/08 15:31:57;;;;;;;;;;;;;;;19.02;57.99;101184.72;5026905;28;1589;-33
2022/02/08 15:34:24;;;;;;;;;;;;;;;19.01;58.01;101177.66;5026223;28;1154;-32
2022/02/08 15:36:52;;;;;;;;;;;;;;;19.03;57.76;101199.81;5029109;28;1948;-33
2022/02/08 15:39:18;;;;;;;;;;;;;;;19.03;57.90;101202.50;5025260;28;1460;-33
2022/02/08 15:41:46;;;;;;;;;;;;;;;19.02;58.21;101208.84;5028593;28;1068;-32
2022/02/08 15:44:16;;;;;;;;;;;;;;;19.03;57.89;101207.00;5024599;28;1587;-33
2022/02/08 15:46:43;;;;;;;;;;;;;;;19.02;57.54;101211.53;5027671;28;1764;-34
2022/02/08 15:49:09;;;;;;;;;;;;;;;19.04;57.46;101220.28;5024318;28;1902;-33
2022/02/08 15:51:40;;;;;;;;;;;;;;;19.05;57.45;101215.78;5025408;28;1480;-33
2022/02/08 15:54:17;;;;;;;;;;;;;;;19.03;57.70;101223.94;5024434;28;1394;-35
2022/02/08 16:07:54;;;;;;;;;;;;;;;19.02;58.26;101254.41;5037658;28;2165;-33
2022/02/08 16:10:28;;;;;;;;;;;;;;;18.96;58.01;101265.63;5081564;28;1971;-33
2022/02/08 16:16:15;;;;;;;;;;;;;;;18.97;58.00;101293.28;5124198;27;1575;-33
2022/02/08 16:18:49;;;;;;;;;;;;;;;18.97;57.06;101294.13;5114079;28;1787;-34
2022/02/08 16:21:57;;;;;;;;;;;;;;;18.93;57.68;101292.66;5115509;28;1441;-34
2022/02/08 16:24:45;;;;;;;;;;;;;;;18.98;57.63;101300.31;5118776;28;1590;-33
2022/02/08 16:27:21;;;;;;;;;;;;;;;18.97;57.70;101304.84;5119041;28;985;-33
2022/02/08 16:33:01;;;;;;;;;;;;;;;18.94;57.56;101329.22;5089987;27;1644;-34
2022/02/08 16:46:46;;;;;;;;;;;;;;;18.99;57.83;101351.13;5120826;28;1691;-31
2022/02/08 16:54:48;;;;;;;;;;;;;;;19.01;57.58;101364.41;5120425;28;1915;-33
2022/02/08 16:57:19;;;;;;;;;;;;;;;18.97;57.38;101353.09;5128825;28;1058;-33
2022/02/08 16:59:46;;;;;;;;;;;;;;;18.95;57.05;101355.03;5118934;28;1090;-34
2022/02/08 17:02:18;;;;;;;;;;;;;;;18.98;57.29;101359.28;5118569;28;1771;-33
2022/02/08 17:04:46;;;;;;;;;;;;;;;19.00;57.36;101363.56;5118841;27;1759;-33
2022/02/08 17:07:13;;;;;;;;;;;;;;;18.95;57.94;101365.75;5111650;28;1706;-33
2022/02/08 17:09:45;;;;;;;;;;;;;;;18.96;57.18;101375.50;5120541;28;1624;-33
2022/02/08 17:12:17;;;;;;;;;;;;;;;18.95;57.55;101368.44;5127880;28;1075;-34
2022/02/08 17:14:55;;;;;;;;;;;;;;;18.99;57.37;101388.66;5118168;27;1944;-33
2022/02/08 17:17:44;;;;;;;;;;;;;;;18.95;57.74;101387.19;5118127;27;1962;-31
2022/02/08 17:45:41;;;;;;;;;;;;;;;18.91;57.40;101407.16;5061013;28;1815;-31
2022/02/08 17:48:08;;;;;;;;;;;;;;;18.93;57.91;101415.94;5102978;28;1836;-31
2022/02/08 17:50:34;;;;;;;;;;;;;;;18.91;57.71;101406.31;5105914;28;1628;-31
2022/02/08 17:53:04;;;;;;;;;;;;;;;18.89;57.32;101414.47;5102421;28;1775;-32
2022/02/08 17:55:31;;;;;;;;;;;;;;;18.88;57.79;101410.09;5104360;28;1902;-31
2022/02/08 17:58:00;;;;;;;;;;;;;;;18.87;57.75;101414.59;5112975;28;1834;-32
2022/02/08 18:00:30;;;;;;;;;;;;;;;18.87;57.82;101411.06;5103986;27;1599;-31
2022/02/08 18:02:56;;;;;;;;;;;;;;;18.93;58.00;101418.63;5101420;28;1735;-32
2022/02/08 18:05:23;;;;;;;;;;;;;;;18.91;56.91;101417.88;5104763;28;1303;-31
2022/02/08 18:07:50;;;;;;;;;;;;;;;18.92;57.13;101422.28;5104328;28;1045;-31
2022/02/08 18:10:22;;;;;;;;;;;;;;;18.91;57.32;101420.56;5103673;28;1954;-32
2022/02/08 18:12:50;;;;;;;;;;;;;;;18.90;57.69;101429.59;5113189;28;2013;-31
2022/02/08 18:15:17;;;;;;;;;;;;;;;18.92;57.23;101426.78;5100710;28;1901;-31
2022/02/08 18:17:48;;;;;;;;;;;;;;;18.90;56.85;101428.72;5104810;28;1770;-33
2022/02/08 18:20:25;;;;;;;;;;;;;;;18.89;57.24;101422.50;5105941;28;1070;-31
2022/02/08 18:23:06;;;;;;;;;;;;;;;18.90;57.71;101436.75;5100957;28;1647;-31
2022/02/08 18:25:51;;;;;;;;;;;;;;;18.90;57.55;101437.63;5105391;28;1801;-36
2022/02/08 18:28:30;;;;;;;;;;;;;;;18.92;57.31;101435.69;5114845;28;1076;-36
2022/02/08 18:51:03;;;;;;;;;;;;;;;18.88;57.18;101447.63;5102658;28;1402;-36
2022/02/08 19:07:24;;;;;;;;;;;;;;;18.88;56.93;101490.50;5109159;28;1519;-36
2022/02/08 19:10:06;;;;;;;;;;;;;;;18.84;56.63;101481.84;5101378;28;1965;-37
2022/02/08 19:12:38;;;;;;;;;;;;;;;18.73;56.16;101495.16;5088774;28;1700;-37
2022/02/08 19:15:26;;;;;;;;;;;;;;;18.59;54.17;101493.50;5099132;28;1971;-37
2022/02/08 19:18:15;;;;;;;;;;;;;;;18.73;53.59;101499.66;5093325;28;1409;-37
2022/02/08 19:20:54;;;;;;;;;;;;;;;18.94;53.13;101503.44;5099386;28;1087;-37
2022/02/08 19:23:20;;;;;;;;;;;;;;;19.04;53.68;101504.44;5094566;28;1913;-37
2022/02/08 19:25:48;;;;;;;;;;;;;;;19.11;53.83;101503.94;5096523;28;1733;-37
2022/02/08 19:28:16;;;;;;;;;;;;;;;19.12;54.46;101511.00;5083362;28;1587;-38
2022/02/08 19:30:45;;;;;;;;;;;;;;;19.22;53.86;101522.75;5090021;28;1684;-37
2022/02/08 19:33:12;;;;;;;;;;;;;;;19.10;54.83;101524.56;5092648;28;1507;-37
2022/02/08 19:35:38;;;;;;;;;;;;;;;19.07;55.32;101512.22;5096135;28;1902;-37
2022/02/08 19:38:06;;;;;;;;;;;;;;;19.07;56.10;101517.56;5094796;28;1422;-37
2022/02/08 19:40:32;;;;;;;;;;;;;;;19.12;55.66;101527.97;5092321;28;1732;-37
2022/02/08 19:42:59;;;;;;;;;;;;;;;19.13;56.12;101536.84;5096191;28;1409;-38
2022/02/08 19:45:25;;;;;;;;;;;;;;;19.15;55.73;101530.41;5096618;28;1760;-37
2022/02/08 19:47:53;;;;;;;;;;;;;;;19.15;56.03;101526.88;5101779;28;1645;-37
2022/02/08 19:50:20;;;;;;;;;;;;;;;18.97;56.10;101505.84;5096186;28;1568;-39
2022/02/08 19:52:47;;;;;;;;;;;;;;;19.08;55.92;101519.31;5099360;28;1482;-37
2022/02/08 19:55:25;;;;;;;;;;;;;;;19.05;55.93;101522.19;5098746;28;1971;-37
2022/02/08 19:57:54;;;;;;;;;;;;;;;19.11;56.87;101536.13;5101150;28;1605;-38
2022/02/08 20:00:27;;;;;;;;;;;;;;;19.11;56.36;101536.13;5097005;28;1576;-36
2022/02/08 20:02:57;;;;;;;;;;;;;;;19.16;56.79;101550.00;5094283;28;1561;-36
2022/02/08 20:05:28;;;;;;;;;;;;;;;19.20;56.63;101530.03;5092161;28;1512;-36
2022/02/08 20:07:55;;;;;;;;;;;;;;;19.29;55.97;101548.09;5093117;28;1421;-36
2022/02/08 20:10:22;;;;;;;;;;;;;;;19.31;56.24;101543.47;5084350;28;1938;-37
2022/02/08 20:12:48;;;;;;;;;;;;;;;19.27;56.26;101540.16;5074178;28;1643;-36
2022/02/08 20:15:15;;;;;;;;;;;;;;;19.30;56.00;101546.28;5084538;28;1910;-37
2022/02/08 20:17:41;;;;;;;;;;;;;;;19.32;56.47;101547.00;5093478;28;1521;-37
2022/02/08 20:20:12;;;;;;;;;;;;;;;19.41;56.12;101560.56;5095725;28;1306;-37
2022/02/08 20:22:43;;;;;;;;;;;;;;;19.47;55.34;101561.91;5087846;28;1641;-36
2022/02/08 20:25:11;;;;;;;;;;;;;;;19.43;55.55;101552.41;5084832;28;1717;-36
2022/02/08 20:27:47;;;;;;;;;;;;;;;19.43;55.92;101561.28;5101866;28;1139;-36
2022/02/08 20:30:15;;;;;;;;;;;;;;;19.43;56.38;101569.34;5098867;28;1647;-36
2022/02/08 20:32:41;;;;;;;;;;;;;;;19.43;57.14;101563.97;5084212;28;1669;-36
2022/02/08 20:35:10;;;;;;;;;;;;;;;19.40;57.70;101563.38;5086559;28;2068;-36
2022/02/08 20:37:39;;;;;;;;;;;;;;;19.41;58.49;101573.97;5090011;28;1617;-36
2022/02/08 20:40:09;;;;;;;;;;;;;;;19.33;58.50;101583.59;5088375;28;1466;-36
2022/02/08 20:42:35;;;;;;;;;;;;;;;19.34;57.92;101575.44;5087586;28;1440;-36
2022/02/08 20:45:02;;;;;;;;;;;;;;;19.28;57.88;101571.41;5093024;28;1535;-36
2022/02/08 20:47:34;;;;;;;;;;;;;;;19.25;57.88;101565.41;5103327;28;1074;-36
2022/02/08 20:50:11;;;;;;;;;;;;;;;19.18;57.46;101564.16;5099803;28;1696;-37
2022/02/08 20:52:42;;;;;;;;;;;;;;;19.25;57.08;101573.44;5096751;28;1638;-36
2022/02/08 20:55:11;;;;;;;;;;;;;;;19.17;58.45;101571.34;5093713;28;1910;-36
2022/02/08 20:57:39;;;;;;;;;;;;;;;19.16;58.74;101577.69;5089743;28;1621;-36
2022/02/08 21:00:06;;;;;;;;;;;;;;;19.17;58.73;101590.13;5098270;28;1664;-36
2022/02/08 21:02:37;;;;;;;;;;;;;;;19.12;58.84;101569.97;5100362;28;1430;-35
2022/02/08 21:05:18;;;;;;;;;;;;;;;19.10;58.41;101571.94;5101088;28;1982;-36
2022/02/08 21:07:46;;;;;;;;;;;;;;;19.07;57.96;101560.47;5103394;28;1998;-36
2022/02/08 21:10:12;;;;;;;;;;;;;;;19.03;58.22;101564.34;5102774;28;1862;-36
2022/02/08 21:12:42;;;;;;;;;;;;;;;19.02;58.07;101577.88;5064582;27;11085;-37
2022/02/08 21:15:10;;;;;;;;;;;;;;;18.95;56.52;101569.44;5016117;28;11214;-36
2022/02/08 21:17:37;;;;;;;;;;;;;;;18.93;57.48;101563.34;5050865;28;1174;-36
2022/02/08 21:20:04;;;;;;;;;;;;;;;18.92;57.99;101558.97;5055386;28;1914;-36
2022/02/08 21:22:30;;;;;;;;;;;;;;;18.83;58.61;101565.00;5065996;28;1773;-36
2022/02/08 21:24:58;;;;;;;;;;;;;;;18.80;58.53;101566.09;5061648;28;1658;-36
2022/02/08 21:27:27;;;;;;;;;;;;;;;18.80;57.81;101566.09;5055075;28;1034;-36
2022/02/08 21:30:02;;;;;;;;;;;;;;;18.87;57.52;101555.78;5066638;28;1750;-36
2022/02/08 21:33:06;;;;;;;;;;;;;;;18.90;50.87;101571.63;5056415;28;1491;-36
2022/02/08 21:49:20;;;;;;;;;;;;;;;18.69;58.44;101574.03;5045696;28;1800;-36
2022/02/08 21:52:10;;;;;;;;;;;;;;;18.71;57.82;101571.25;5054629;28;1625;-36
2022/02/08 21:54:39;;;;;;;;;;;;;;;18.74;58.33;101565.66;5061929;28;1605;-36
2022/02/08 21:57:08;;;;;;;;;;;;;;;18.72;58.12;101572.94;5055976;28;1969;-36
2022/02/08 21:59:36;;;;;;;;;;;;;;;18.74;58.50;101581.72;5058500;28;1824;-36
2022/02/08 22:02:03;;;;;;;;;;;;;;;18.69;58.42;101580.25;5060163;28;1857;-36
2022/02/08 22:04:32;;;;;;;;;;;;;;;18.63;58.43;101580.72;5057505;28;1490;-36
2022/02/08 22:06:59;;;;;;;;;;;;;;;18.64;58.36;101578.88;5060568;28;1478;-36
2022/02/08 22:09:28;;;;;;;;;;;;;;;18.66;58.29;101575.13;5063175;28;1592;-36
2022/02/08 22:20:42;;;;;;;;;;;;;;;18.65;58.75;101584.13;5046805;28;1946;-36
2022/02/08 22:23:17;;;;;;;;;;;;;;;18.66;58.39;101595.69;5056467;28;1741;-36
2022/02/08 22:25:49;;;;;;;;;;;;;;;18.67;58.69;101592.91;5054954;28;1357;-37
2022/02/08 22:28:29;;;;;;;;;;;;;;;18.63;58.37;101596.78;5041448;28;1656;-36
2022/02/08 22:31:08;;;;;;;;;;;;;;;18.67;58.81;101597.41;5066077;28;1958;-36
2022/02/08 22:33:39;;;;;;;;;;;;;;;18.64;58.85;101579.75;5045953;28;1655;-36
2022/02/08 22:36:14;;;;;;;;;;;;;;;18.60;58.58;101586.31;5053858;28;1930;-36
2022/02/08 22:38:50;;;;;;;;;;;;;;;18.61;58.32;101598.72;5054885;28;1873;-36
2022/02/08 22:41:42;;;;;;;;;;;;;;;18.65;57.62;101588.63;5041742;28;1769;-36
2022/02/08 22:44:20;;;;;;;;;;;;;;;18.80;53.99;101578.63;5060154;28;1671;-36
2022/02/08 22:47:01;;;;;;;;;;;;;;;18.77;57.83;101594.91;5061253;28;1947;-36
2022/02/08 22:49:29;;;;;;;;;;;;;;;18.64;58.20;101587.78;5042065;28;1902;-36
2022/02/08 22:51:57;;;;;;;;;;;;;;;18.59;58.41;101595.31;5058580;28;1568;-35
2022/02/08 22:54:25;;;;;;;;;;;;;;;18.57;58.82;101599.06;5059984;28;1582;-36
2022/02/08 22:56:54;;;;;;;;;;;;;;;18.52;58.81;101596.69;5053546;28;1906;-36
2022/02/08 22:59:21;;;;;;;;;;;;;;;18.46;58.70;101594.47;5054716;28;1754;-36
2022/02/08 23:01:50;;;;;;;;;;;;;;;18.46;58.80;101616.78;5056306;28;1537;-36
2022/02/08 23:04:19;;;;;;;;;;;;;;;18.39;58.92;101614.66;5058700;28;1623;-36
2022/02/08 23:06:48;;;;;;;;;;;;;;;18.38;58.91;101602.22;5064296;28;1853;-36
2022/02/08 23:09:19;;;;;;;;;;;;;;;18.47;58.93;101606.91;5048920;28;1768;-36
2022/02/08 23:12:03;;;;;;;;;;;;;;;18.47;59.67;101610.44;5043220;28;1731;-36
2022/02/08 23:14:32;;;;;;;;;;;;;;;18.45;59.68;101615.06;5047967;28;1458;-36
2022/02/08 23:39:02;;;;;;;;;;;;;;;18.29;59.58;101623.34;5042319;28;1206;-36
2022/02/08 23:41:29;;;;;;;;;;;;;;;18.26;59.69;101612.88;5048335;28;1654;-36
2022/02/08 23:43:57;;;;;;;;;;;;;;;18.23;59.45;101610.41;5048420;28;1592;-36
2022/02/08 23:46:24;;;;;;;;;;;;;;;18.36;59.50;101620.22;5046858;28;1398;-36
2022/02/08 23:49:02;;;;;;;;;;;;;;;18.61;57.02;101646.94;5043699;28;1420;-36
2022/02/08 23:51:32;;;;;;;;;;;;;;;18.57;58.84;101626.69;5046161;28;1581;-36
2022/02/08 23:54:01;;;;;;;;;;;;;;;18.37;59.03;101632.66;5044686;28;1585;-36
2022/02/08 23:56:40;;;;;;;;;;;;;;;18.44;59.18;101639.25;5038941;28;1902;-36
2022/02/08 23:59:09;;;;;;;;;;;;;;;18.39;59.33;101630.72;5046545;28;1442;-36
